Latest Weather Observations for Marble Bar

IDW60801

Issued at 3:53 pm WST Wednesday 10 August 2022 (issued every 10 minutes, with the page automatically refreshed every 10 minutes)

About weather observations | Map of weather stations | Latest weather observations for WA | Other Formats
Station Details ID: 004106 Name: MARBLE BAR Lat: -21.18 Lon: 119.75 Height: 182.3 m
Data from the previous 72 hours. | See also: Recent months at Marble Bar
Date/Time
WST
Temp
°C
App
Temp
°C
Dew
Point
°C
Rel
Hum
%
Delta-T
°C
Wind Press
QNH
hPa
Press
MSL
hPa
Rain since
9am
mm
Dir  Spd
km/h
Gust
km/h
Spd
kts
Gust
kts
10/03:30pm 18.4 14.7 6.3 45 6.0 E 15 22 8 12 1016.7 1016.1 0.2
10/03:00pm 18.9 14.8 6.4 44 6.3 E 17 26 9 14 1016.5 1015.9 0.2
10/02:30pm 19.9 15.3 3.6 34 7.8 E 17 28 9 15 1016.7 1016.1 0.2
10/02:00pm 21.1 16.1 3.8 32 8.4 E 19 26 10 14 1016.6 1016.0 0.2
10/01:30pm 20.8 15.5 2.1 29 8.7 E 19 30 10 16 1017.0 1016.4 0.2
10/01:00pm 20.3 15.0 1.7 29 8.6 ESE 19 26 10 14 1017.5 1016.9 0.2
10/12:30pm 20.0 14.6 1.4 29 8.5 SE 19 26 10 14 1017.6 1017.0 0.2
10/12:00pm 20.0 14.7 1.9 30 8.4 SSE 19 26 10 14 1018.3 1017.6 0.2
10/11:30am 19.5 14.6 1.9 31 8.1 SSE 17 30 9 16 1018.7 1018.0 0.2
10/11:00am 19.2 13.7 2.1 32 7.9 SSE 20 30 11 16 1019.1 1018.4 0.2
10/10:30am 19.2 13.8 2.6 33 7.7 SSE 20 32 11 17 1019.2 1018.5 0.2
10/10:00am 18.4 12.6 2.3 34 7.4 SSE 22 32 12 17 1019.6 1018.9 0.0
10/09:30am 18.0 12.6 2.3 35 7.2 SE 20 30 11 16 1019.7 1019.0 0.0
10/09:00am 17.2 11.8 2.4 37 6.8 SE 20 32 11 17 1019.5 1018.8 0.2
10/08:30am 16.8 11.4 2.4 38 6.6 SSE 20 30 11 16 1018.7 1018.0 0.2
10/08:00am 17.2 11.2 1.2 34 7.1 SSE 22 32 12 17 1018.3 1017.6 0.2
10/07:30am 17.0 11.6 1.4 35 7.0 SSE 19 33 10 18 1017.9 1017.2 0.2
10/07:00am 16.6 10.9 2.6 39 6.4 SSE 22 33 12 18 1017.5 1016.9 0.2
10/06:30am 16.9 10.8 2.5 38 6.6 SSE 24 35 13 19 1017.0 1016.4 0.2
10/06:00am 17.2 11.9 2.0 36 6.9 SSE 19 33 10 18 1016.7 1016.1 0.2
10/05:30am 16.9 12.3 3.6 41 6.2 SSE 17 30 9 16 1016.3 1015.7 0.2
10/05:00am 15.7 13.8 7.5 58 4.1 SE 7 9 4 5 1016.1 1015.5 0.2
10/04:30am 15.9 13.1 6.9 55 4.5 SSE 11 17 6 9 1015.9 1015.3 0.0
10/04:00am 18.4 15.6 3.1 36 7.2 SSE 7 13 4 7 1015.7 1015.1 0.0
10/03:30am 18.2 14.9 4.4 40 6.6 SSE 11 17 6 9 1015.2 1014.6 0.0
10/03:00am 20.0 14.7 2.8 32 8.1 S 20 32 11 17 1015.2 1014.6 0.0
10/02:30am 20.6 16.7 3.3 32 8.3 SSE 13 19 7 10 1014.8 1014.1 0.0
10/02:00am 20.7 16.9 3.9 33 8.1 S 13 17 7 9 1014.9 1014.2 0.0
10/01:30am 20.9 17.4 3.6 32 8.3 SSE 11 19 6 10 1015.1 1014.5 0.0
10/01:00am 20.9 17.3 3.2 31 8.5 SSE 11 19 6 10 1015.1 1014.5 0.0
10/12:30am 20.9 16.7 3.6 32 8.3 SSE 15 22 8 12 1015.2 1014.6 0.0
10/12:00am 20.8 17.5 4.4 34 8.0 SSE 11 17 6 9 1015.4 1014.8 0.0
 
Date/Time
WST
Temp
°C
App
Temp
°C
Dew
Point
°C
Rel
Hum
%
Delta-T
°C
Wind Press
QNH
hPa
Press
MSL
hPa
Rain since
9am
mm
Dir  Spd
km/h
Gust
km/h
Spd
kts
Gust
kts
09/11:30pm 20.9 17.1 4.0 33 8.2 S 13 19 7 10 1015.6 1015.0 0.0
09/11:00pm 20.4 17.8 4.0 34 7.9 SSE 7 13 4 7 1015.5 1014.9 0.0
09/10:30pm 20.4 17.3 3.6 33 8.1 S 9 11 5 6 1015.8 1015.2 0.0
09/10:00pm 20.4 17.2 3.2 32 8.2 SSE 9 13 5 7 1015.4 1014.8 0.0
09/09:30pm 20.7 17.5 3.0 31 8.4 SSE 9 13 5 7 1015.3 1014.7 0.0
09/09:00pm 20.9 17.7 3.2 31 8.5 S 9 17 5 9 1015.3 1014.7 0.0
09/08:30pm 21.1 16.7 2.9 30 8.7 S 15 20 8 11 1015.0 1014.4 0.0
09/08:00pm 21.4 17.4 2.6 29 8.9 SSE 13 20 7 11 1015.1 1014.5 0.0
09/07:30pm 21.5 16.3 2.7 29 8.9 S 19 30 10 16 1014.6 1013.9 0.0
09/07:00pm 21.7 17.2 2.4 28 9.1 S 15 24 8 13 1014.4 1013.7 0.0
09/06:30pm 22.4 17.0 1.4 25 9.8 S 19 26 10 14 1014.2 1013.5 0.0
09/06:00pm 23.0 17.3 0.8 23 10.3 S 20 32 11 17 1013.8 1013.1 0.0
09/05:30pm 23.9 18.4 0.3 21 10.9 S 19 30 10 16 1013.2 1012.5 0.0
09/05:00pm 24.8 19.1 -1.1 18 11.8 S 19 28 10 15 1013.0 1012.3 0.0
09/04:30pm 25.4 18.7 -1.4 17 12.2 S 24 37 13 20 1012.9 1012.2 0.0
09/04:00pm 26.8 20.4 -2.0 15 13.1 S 22 33 12 18 1012.5 1011.8 0.0
09/03:30pm 27.3 20.4 -2.5 14 13.5 S 24 35 13 19 1012.4 1011.7 0.0
09/03:08pm 29.7 23.6 -3.9 11 15.1 WSW 19 39 10 21 1012.1 1011.4 0.0
09/03:00pm 30.8 26.3 -7.2 8 16.3 W 9 19 5 10 1012.0 1011.3 0.0
09/02:30pm 30.5 25.9 -7.4 8 16.1 W 9 19 5 10 1012.2 1011.5 0.0
09/02:00pm 29.9 25.3 -7.9 8 15.9 WSW 9 19 5 10 1012.3 1011.6 0.0
09/01:30pm 29.4 25.3 -6.7 9 15.4 S 7 13 4 7 1012.3 1011.6 0.0
09/01:00pm 29.1 25.2 -7.0 9 15.3 SE 6 15 3 8 1012.6 1011.9 0.0
09/12:30pm 28.3 23.4 -7.6 9 14.9 SSW 11 19 6 10 1013.2 1012.5 0.0
09/12:00pm 28.4 24.2 -7.5 9 15.0 SSW 7 13 4 7 1013.7 1013.0 0.0
09/11:30am 27.9 23.3 -7.9 9 14.7 SSE 9 19 5 10 1014.0 1013.3 0.0
09/11:00am 27.5 22.6 -6.8 10 14.3 SSW 11 22 6 12 1014.6 1013.9 0.0
09/10:30am 26.8 21.5 -7.3 10 14.0 SSE 13 20 7 11 1014.6 1013.9 0.0
09/10:00am 26.0 20.4 -6.7 11 13.5 S 15 24 8 13 1015.0 1014.4 0.0
09/09:30am 25.4 21.0 -6.0 12 13.1 SE 9 20 5 11 1014.9 1014.2 0.0
09/09:00am 23.9 20.2 -4.3 15 12.0 SSE 6 7 3 4 1014.8 1014.1 0.0
09/08:30am 21.8 19.1 -2.8 19 10.5 SSW 2 6 1 3 1014.7 1014.0 0.0
09/08:00am 19.3 16.8 -1.2 25 8.9 SW 2 7 1 4 1014.5 1013.8 0.0
09/07:30am 16.9 14.6 0.5 33 7.2 SW 2 4 1 2 1014.3 1013.6 0.0
09/07:00am 14.0 12.0 -0.4 37 6.0 CALM 0 0 0 0 1014.0 1013.3 0.0
09/06:30am 12.1 9.4 0.2 44 5.0 SSW 4 6 2 3 1013.6 1012.9 0.0
09/06:00am 12.4 9.6 -0.1 42 5.2 S 4 7 2 4 1013.2 1012.5 0.0
09/05:30am 13.3 10.8 -1.1 37 5.9 S 2 4 1 2 1012.9 1012.2 0.0
09/05:00am 12.7 10.3 -0.2 41 5.4 SSW 2 2 1 1 1012.5 1011.8 0.0
09/04:30am 12.7 10.9 1.1 45 5.0 CALM 0 0 0 0 1012.3 1011.6 0.0
09/04:00am 12.9 10.6 0.6 43 5.2 S 2 4 1 2 1012.3 1011.6 0.0
09/03:30am 13.5 11.7 0.9 42 5.4 CALM 0 0 0 0 1012.0 1011.3 0.0
09/03:00am 13.9 11.9 0.2 39 5.8 CALM 0 2 0 1 1012.0 1011.3 0.0
09/02:30am 15.8 13.2 -1.7 30 7.3 S 2 4 1 2 1012.1 1011.4 0.0
09/02:00am 15.0 11.7 -1.1 33 6.7 SSW 6 9 3 5 1012.2 1011.5 0.0
09/01:30am 13.4 10.8 0.8 42 5.4 SSW 4 6 2 3 1012.3 1011.6 0.0
09/01:00am 14.4 11.6 -0.5 36 6.3 SSW 4 6 2 3 1012.5 1011.8 0.0
09/12:30am 14.4 11.7 0.6 39 5.9 S 4 4 2 2 1012.8 1012.1 0.0
09/12:00am 15.7 13.7 -0.1 34 6.8 CALM 0 2 0 1 1012.9 1012.2 0.0
 
Date/Time
WST
Temp
°C
App
Temp
°C
Dew
Point
°C
Rel
Hum
%
Delta-T
°C
Wind Press
QNH
hPa
Press
MSL
hPa
Rain since
9am
mm
Dir  Spd
km/h
Gust
km/h
Spd
kts
Gust
kts
08/11:30pm 15.9 13.6 0.1 34 6.8 S 2 4 1 2 1013.2 1012.5 0.0
08/11:00pm 17.3 14.5 -0.4 30 7.6 WNW 4 6 2 3 1013.3 1012.6 0.0
08/10:30pm 18.2 15.5 0.4 30 7.9 SW 4 6 2 3 1013.3 1012.6 0.0
08/10:00pm 17.9 15.6 0.1 30 7.8 S 2 2 1 1 1013.2 1012.5 0.0
08/09:30pm 18.4 16.1 0.5 30 8.0 S 2 4 1 2 1013.1 1012.4 0.0
08/09:00pm 20.4 17.2 -0.8 24 9.3 SW 6 6 3 3 1013.3 1012.6 0.0
08/08:30pm 21.4 18.3 0.0 24 9.7 SW 6 9 3 5 1013.2 1012.5 0.0
08/08:00pm 20.9 18.3 1.2 27 9.1 WSW 4 6 2 3 1013.1 1012.4 0.0
08/07:30pm 22.1 19.8 0.6 24 9.9 SSW 2 6 1 3 1012.8 1012.1 0.0
08/07:00pm 22.6 20.8 1.0 24 10.0 CALM 0 0 0 0 1012.6 1011.9 0.0
08/06:30pm 23.6 21.2 0.0 21 10.8 W 2 4 1 2 1012.1 1011.4 0.0
08/06:00pm 25.4 22.0 -2.2 16 12.3 W 6 9 3 5 1011.8 1011.2 0.0
08/05:30pm 27.2 23.4 -3.6 13 13.6 W 7 13 4 7 1011.5 1010.9 0.0
08/05:00pm 28.8 24.7 -3.4 12 14.5 W 9 15 5 8 1011.1 1010.5 0.0
08/04:30pm 29.1 23.3 -4.3 11 14.8 W 17 22 9 12 1011.0 1010.4 0.0
08/04:00pm 29.7 25.3 -2.7 12 14.9 WSW 11 24 6 13 1010.9 1010.3 0.0
08/03:30pm 29.9 25.1 -2.6 12 14.9 WNW 13 22 7 12 1010.8 1010.2 0.0
08/03:00pm 30.1 25.8 -1.3 13 14.8 NW 11 20 6 11 1010.9 1010.3 0.0
08/02:30pm 30.1 25.7 -2.4 12 15.0 NNW 11 20 6 11 1011.1 1010.5 0.0
08/02:00pm 29.9 25.9 -2.6 12 15.0 WNW 9 20 5 11 1011.3 1010.7 0.0
08/01:30pm 29.7 25.4 -5.1 10 15.3 W 9 17 5 9 1012.0 1011.3 0.0
08/01:00pm 28.8 24.4 -5.8 10 14.9 WSW 9 20 5 11 1012.5 1011.8 0.0
08/12:30pm 28.7 24.2 -7.3 9 15.1 SW 9 19 5 10 1012.9 1012.2 0.0
08/12:00pm 28.2 24.5 -9.1 8 15.1 W 4 9 2 5 1013.4 1012.7 0.0
08/11:30am 27.3 23.1 -9.8 8 14.7 SSE 6 11 3 6 1013.7 1013.0 0.0
08/11:00am 27.3 23.2 -8.3 9 14.5 ENE 6 7 3 4 1014.1 1013.4 0.0
08/10:30am 26.8 22.7 -8.7 9 14.3 NE 6 9 3 5 1014.4 1013.7 0.0
08/10:00am 25.8 21.8 -8.1 10 13.6 SE 6 11 3 6 1014.8 1014.1 0.0
08/09:30am 24.7 21.1 -7.7 11 13.0 E 4 9 2 5 1015.0 1014.4 0.0
08/09:00am 23.5 18.9 -7.5 12 12.3 ESE 9 11 5 6 1015.2 1014.6 0.0
08/08:30am 20.9 17.6 -4.3 18 10.4 SSW 4 6 2 3 1015.2 1014.6 0.0
08/08:00am 18.5 14.8 -4.9 20 9.3 SSW 6 9 3 5 1015.1 1014.5 0.0
08/07:30am 15.8 13.2 -1.7 30 7.3 S 2 4 1 2 1014.9 1014.2 0.0
08/07:00am 11.8 9.2 -2.0 38 5.4 S 2 4 1 2 1014.9 1014.2 0.0
08/06:30am 11.0 7.8 -3.1 37 5.4 S 4 6 2 3 1014.7 1014.0 0.0
08/06:00am 10.0 7.7 -2.3 42 4.7 CALM 0 0 0 0 1014.6 1013.9 0.0
08/05:30am 10.7 7.9 -3.0 38 5.2 SSW 2 4 1 2 1014.3 1013.6 0.0
08/05:00am 11.5 8.3 -3.8 34 5.8 SSW 4 6 2 3 1014.2 1013.5 0.0
08/04:30am 11.7 8.8 -4.4 32 6.0 S 2 4 1 2 1014.0 1013.3 0.0
08/04:00am 12.5 9.6 -4.1 31 6.3 S 2 7 1 4 1014.1 1013.4 0.0
08/03:30am 11.4 9.1 -2.4 38 5.4 CALM 0 0 0 0 1014.1 1013.4 0.0
08/03:00am 12.5 10.1 -2.9 34 6.0 CALM 0 2 0 1 1014.1 1013.4 0.0
08/02:30am 12.7 10.2 -4.4 30 6.5 CALM 0 2 0 1 1014.2 1013.5 0.0
08/02:00am 13.1 10.2 -4.5 29 6.7 SSW 2 6 1 3 1014.5 1013.8 0.0
08/01:30am 12.0 9.1 -3.8 33 6.0 S 2 4 1 2 1014.6 1013.9 0.0
08/01:00am 12.0 9.2 -3.4 34 5.9 SSW 2 6 1 3 1014.8 1014.1 0.0
08/12:30am 13.4 10.5 -3.8 30 6.6 SSW 2 4 1 2 1015.3 1014.7 0.0
08/12:00am 14.1 11.2 -4.1 28 7.0 SSW 2 6 1 3 1015.3 1014.7 0.0
 
Date/Time
WST
Temp
°C
App
Temp
°C
Dew
Point
°C
Rel
Hum
%
Delta-T
°C
Wind Press
QNH
hPa
Press
MSL
hPa
Rain since
9am
mm
Dir  Spd
km/h
Gust
km/h
Spd
kts
Gust
kts
07/11:30pm 14.7 11.4 -4.6 26 7.4 SSW 4 6 2 3 1015.4 1014.8 0.0
07/11:00pm 13.1 9.9 -3.2 32 6.3 SE 4 6 2 3 1015.5 1014.9 0.0
07/10:30pm 14.5 12.0 -3.8 28 7.1 CALM 0 2 0 1 1015.6 1015.0 0.0
07/10:00pm 14.1 11.0 -2.8 31 6.7 SE 4 6 2 3 1015.7 1015.1 0.0
07/09:30pm 15.0 11.4 -3.3 28 7.3 SE 6 9 3 5 1015.6 1015.0 0.0
07/09:00pm 15.3 12.5 -3.1 28 7.4 ESE 2 4 1 2 1015.7 1015.1 0.0
07/08:30pm 16.0 12.9 -2.5 28 7.5 SE 4 4 2 2 1015.6 1015.0 0.0
07/08:00pm 17.5 14.6 -3.8 23 8.6 SE 2 4 1 2 1015.4 1014.8 0.0
07/07:30pm 17.7 15.4 -2.5 25 8.4 CALM 0 0 0 0 1015.1 1014.5 0.0
07/07:00pm 19.2 15.9 -4.3 20 9.5 SSE 4 6 2 3 1014.9 1014.2 0.0
07/06:30pm 19.8 16.5 -4.5 19 9.9 E 4 4 2 2 1014.4 1013.7 0.0
07/06:00pm 22.5 19.4 -6.3 14 11.6 E 2 4 1 2 1014.0 1013.3 0.0
07/05:30pm 25.3 22.3 -9.8 9 13.6 CALM 0 2 0 1 1013.7 1013.0 0.0
07/05:00pm 26.3 22.6 -9.1 9 14.0 E 4 7 2 4 1013.7 1013.0 0.0
07/04:30pm 27.2 23.8 -9.9 8 14.6 ESE 2 6 1 3 1013.6 1012.9 0.0
07/04:00pm 27.3 23.5 -9.8 8 14.7 ENE 4 9 2 5 1013.3 1012.6 0.0

Other formats

Comma delimited format used in spreadsheet applications
http://www.bom.gov.au/fwo/IDW60801/IDW60801.95317.axf

JavaScript Object Notation format (JSON) in row-major order
http://www.bom.gov.au/fwo/IDW60801/IDW60801.95317.json

Data quality

Most of these data are generated automatically and are frequently updated. Quality checks on data are not normally performed. It is possible for incorrect values to appear. Refer to information at About Latest Weather Observations and please check the disclaimer before using these data.